ADDS METAR Data INFO
IDs: Format: Raw Decoded Include TAF

Data at: 1547 UTC 24 Sep 2017

KSHR 241504Z AUTO 33008KT 10SM SCT008 OVC017 05/04 A3011 RMK AO2 T00500044
KSHR 241453Z AUTO 32009KT 10SM BKN008 BKN011 OVC018 05/04 A3010 RMK AO2 SLP209 T00500044 53006
KSHR 241353Z AUTO 01003KT 10SM BKN009 OVC035 04/04 A3010 RMK AO2 SLP207 T00440039
KSHR 241253Z AUTO 00000KT 10SM BKN007 OVC011 04/03 A3009 RMK AO2 CIG 005V010 SLP203 T00390033
KSHR 241228Z AUTO 35003KT 10SM BKN006 OVC012 04/03 A3009 RMK AO2 T00390033
KSHR 241153Z AUTO 03003KT 10SM FEW006 OVC012 04/03 A3009 RMK AO2 RAB1054E36 SLP202 P0002 60007 70029 T00390033 10050 20039 55000
KSHR 241133Z AUTO 01003KT 10SM -RA SCT006 OVC012 04/03 A3008 RMK AO2 RAB1054 P0002 T00390033
KSHR 241053Z AUTO 36005KT 10SM OVC006 04/03 A3008 RMK AO2 RAB36E47 CIG 003V009 SLP202 P0000 T00390033
KSHR 240953Z AUTO 35004KT 10SM BKN005 OVC010 04/04 A3008 RMK AO2 RAE44 CIG 003V009 SLP200 P0003 T00440039
KSHR 240906Z AUTO 00000KT 9SM -RA OVC005 04/04 A3009 RMK AO2 P0001 T00440039
KSHR 240853Z AUTO 04003KT 7SM -RA OVC004 04/04 A3009 RMK AO2 RAB34 SLP203 P0002 60002 T00440039 55001
KSHR 240832Z AUTO 01003KT 4SM BR OVC004 04/04 A3009 RMK AO2 T00440044
KSHR 240753Z AUTO 03004KT 10SM OVC007 04/04 A3008 RMK AO2 SLP202 T00440039
KSHR 240653Z AUTO 01004KT 10SM BKN007 OVC026 04/04 A3008 RMK AO2 RAB24E33 CIG 004V010 SLP201 P0000 T00440044 400610044
KSHR 240616Z AUTO 36004KT 10SM BKN006 BKN011 OVC028 05/04 A3008 RMK AO2 CIG 003V009 T00500044
KSHR 240559Z AUTO 32005KT 10SM FEW009 BKN028 OVC033 05/04 A3008 RMK AO2 T00500044
KSHR 240553Z AUTO 33004KT 10SM FEW010 BKN030 OVC045 05/04 A3009 RMK AO2 RAE07 SLP202 P0001 60004 T00500044 10056 20044 58002
KSHR 240530Z AUTO 00000KT 10SM SCT011 BKN022 OVC046 05/04 A3009 RMK AO2 RAE07 P0001 T00500039
KSHR 240506Z AUTO 00000KT 10SM -RA FEW005 BKN012 OVC024 05/04 A3010 RMK AO2 P0001 T00500044
KSHR 240453Z AUTO 28003KT 10SM -RA BKN005 OVC013 04/04 A3010 RMK AO2 RAE0358B30 SLP204 P0001 T00440044
KSHR 240424Z AUTO 34003KT 10SM BKN006 BKN014 OVC020 04/04 A3009 RMK AO2 RAE0358 P0001 T00440044
KSHR 240353Z AUTO 35003KT 10SM -RA FEW009 BKN018 OVC023 04/04 A3010 RMK AO2 RAB51 SLP205 P0000 T00440044
KSHR 240253Z AUTO 35004KT 6SM BR SCT006 OVC017 05/04 A3009 RMK AO2 RAB16E40 SLP204 P0001 60002 T00500044 51005
KSHR 240248Z AUTO 36003KT 6SM BR SCT006 SCT010 OVC017 05/04 A3009 RMK AO2 RAB16E40 P0001
KSHR 240153Z AUTO 06004KT 10SM SCT007 OVC014 05/05 A3010 RMK AO2 RAB34E50 SLP205 P0000 T00500050
KSHR 240108Z AUTO 06003KT 10SM FEW008 OVC012 05/04 A3009 RMK AO2 T00500044
KSHR 240053Z AUTO 06004KT 9SM BKN007 OVC012 06/04 A3008 RMK AO2 RAE27 CIG 005V011 SLP198 P0001 T00560044
KSHR 240042Z AUTO 07003KT 10SM BKN007 OVC012 06/05 A3008 RMK AO2 RAE27 CIG 005V008 P0001 T00560050
KSHR 240033Z AUTO 00000KT 10SM SCT007 OVC012 06/05 A3008 RMK AO2 RAE27 P0001 T00560050
KSHR 232353Z AUTO 02004KT 8SM -RA BKN006 OVC024 06/05 A3007 RMK AO2 RAB30 SLP197 P0002 60011 T00560050 10061 20056 51003
KSHR 232351Z AUTO 03003KT 8SM -RA SCT006 BKN022 OVC027 06/05 A3007 RMK AO2 RAB30 P0002
KSHR 232342Z AUTO 01004KT 9SM -RA FEW008 BKN033 OVC055 06/04 A3007 RMK AO2 RAB30 P0001 T00560044
KSHR 232336Z AUTO 03003KT 10SM -RA FEW019 BKN025 OVC043 06/05 A3008 RMK AO2 RAB30 P0001 T00610050
KSHR 232324Z AUTO 00000KT 10SM SCT018 BKN043 OVC055 06/05 A3009 RMK AO2 T00610050
KSHR 232253Z AUTO 04003KT 10SM FEW006 BKN017 OVC040 06/05 A3009 RMK AO2 RAE38 PRESRR SLP202 P0002 T00610050
KSHR 232227Z AUTO 36006KT 7SM -RA FEW006 BKN031 OVC040 06/06 A3007 RMK AO2 P0002 T00610056
KSHR 232153Z AUTO 34004KT 10SM -RA SCT005 OVC015 06/05 A3006 RMK AO2 SLP193 P0004 T00610050
KSHR 232133Z AUTO 02005KT 10SM -RA FEW005 OVC015 06/05 A3005 RMK AO2 P0003 T00610050
KSHR 232104Z AUTO 35007KT 10SM -RA SCT004 BKN011 OVC017 06/05 A3006 RMK AO2 P0001 T00560050
KSHR 232053Z AUTO 35006KT 6SM -RA BR BKN004 OVC016 06/05 A3006 RMK AO2 RAB06E29B37 SLP194 P0003 60003 T00560050 58005
KSHR 232043Z AUTO 02006KT 5SM RA BR BKN004 OVC011 06/06 A3006 RMK AO2 RAB06E29B37 CIG 003V008 P0002 T00560056
KSHR 232030Z AUTO 35006KT 10SM BKN006 OVC013 06/05 A3006 RMK AO2 RAB06E29 P0001 T00610050
KSHR 231953Z AUTO 35007KT 5SM BR SCT004 BKN010 OVC019 06/06 A3008 RMK AO2 SLP197 T00560056
KSHR 231931Z AUTO 01005KT 2 1/2SM BR BKN005 OVC014 06/06 A3008 RMK AO2 T00560056
KSHR 231914Z AUTO 36005KT 4SM BR SCT005 OVC013 06/05 A3008 RMK AO2 T00560050
KSHR 231853Z AUTO 01007KT 4SM BR OVC011 06/05 A3008 RMK AO2 SLP197 T00560050
KSHR 231753Z AUTO 36007KT 10SM OVC009 06/05 A3008 RMK AO2 CIG 005V011 SLP198 60007 T00610050 10061 20050 50005
KSHR 231653Z AUTO 03006KT 10SM OVC007 06/05 A3008 RMK AO2 SLP199 T00610050
KSHR 231553Z AUTO 01007KT 10SM OVC008 06/05 A3007 RMK AO2 CIG 006V011 SLP193 T00610050
KSHR 231509Z AUTO 04006KT 10SM BKN007 OVC011 06/05 A3006 RMK AO2 CIG 004V010 T00610050
KSHR 231453Z AUTO 06006KT 10SM FEW004 BKN011 OVC060 06/05 A3006 RMK AO2 RAE41 SLP190 P0003 60007 T00610050 50005
KSHR 231434Z AUTO 02004KT 10SM -RA SCT008 BKN042 OVC060 06/05 A3006 RMK AO2 P0003 T00610050
KSHR 231415Z AUTO 00000KT 8SM RA BKN008 OVC039 06/05 A3007 RMK AO2 P0002 T00560050
KSHR 231404Z AUTO 06003KT 9SM -RA SCT008 OVC044 06/05 A3006 RMK AO2 P0001 T00560050
KSHR 231353Z AUTO 06003KT 10SM -RA OVC044 06/05 A3007 RMK AO2 RAE35B49 SLP189 P0002 T00560050
KSHR 231338Z AUTO 07003KT 10SM FEW009 OVC042 06/05 A3006 RMK AO2 RAE35 P0002 T00560050
KSHR 231314Z AUTO 07004KT 10SM -RA BKN008 BKN050 OVC065 06/05 A3005 RMK AO2 P0000 T00560050
KSHR 231305Z AUTO 00000KT 10SM -RA SCT008 BKN050 OVC065 06/05 A3005 RMK AO2 P0000 T00560050
KSHR 231253Z AUTO 00000KT 10SM -RA OVC048 06/05 A3005 RMK AO2 RAB17 SLP183 P0002 T00560050
KSHR 231238Z AUTO 00000KT 10SM -RA SCT009 OVC047 06/05 A3005 RMK AO2 RAB17 P0002 T00560050
KSHR 231219Z AUTO 00000KT 10SM -RA BKN009 OVC039 05/05 A3005 RMK AO2 RAB17 P0000 T00500050
KSHR 231202Z AUTO 00000KT 10SM FEW009 BKN015 OVC039 05/04 A3005 RMK AO2 T00500044
KSHR 231153Z AUTO 00000KT 10SM SCT015 BKN040 OVC065 05/04 A3005 RMK AO2 SLP182 70010 T00500044 10056 20044 56002
KSHR 231053Z AUTO 00000KT 10SM BKN044 OVC065 04/04 A3005 RMK AO2 SLP186 T00440039
KSHR 230953Z AUTO 03003KT 10SM BKN045 OVC070 04/04 A3005 RMK AO2 SLP184 T00440044
KSHR 230853Z AUTO 16003KT 10SM SCT035 BKN070 04/04 A3005 RMK AO2 SLP187 T00440039 53002
KSHR 230753Z AUTO 07004KT 10SM OVC060 05/04 A3005 RMK AO2 SLP183 T00500044
KSHR 230720Z AUTO 02005KT 10SM FEW017 SCT027 OVC055 05/04 A3004 RMK AO2 T00500044
KSHR 230653Z AUTO 00000KT 10SM BKN016 OVC055 06/04 A3004 RMK AO2 SLP181 T00560044 400830050
KSHR 230612Z AUTO 02004KT 10SM BKN017 OVC055 06/04 A3005 RMK AO2 T00560044
KSHR 230553Z AUTO 31003KT 10SM SCT016 OVC060 05/04 A3005 RMK AO2 RAB02E24 SLP185 P0001 60007 T00500044 10078 20050 50007
KSHR 230534Z AUTO 32004KT 10SM SCT030 OVC060 05/04 A3005 RMK AO2 RAB02E24 P0001 T00500044
KSHR 230453Z AUTO 29006KT 10SM OVC025 05/04 A3006 RMK AO2 RAE18 SLP189 P0001 T00500044
KSHR 230353Z AUTO 03003KT 8SM RA OVC024 06/04 A3006 RMK AO2 SLP189 P0005 T00560039